CEB480 RPVB-RPLL
Flight info
| Callsign | CEB480 |
|---|---|
| Flight time | 0h 46m |
| Altitude | 32000 |
| Route | GALIA2A GALIA TR8 KLO TR19 MINOR B473 LAIYA LAIYA5R |
| Aircraft | A20N/M-SDE2E3FGHIRWXY/LB1 |
Departure
| Time | 2026-04-21 13:07 |
|---|---|
| Airport | Bacolod-Silay International Airport (RPVB) |
Arrival
| Time | 2026-04-21 13:53 |
|---|---|
| Airport | Ninoy Aquino International Airport (RPLL) |
| Time | Latitude | Longitude | Altitude | Speed | Heading |
|---|---|---|---|---|---|
| 2026-04-21 12:45 | 10.77633 | 123.01554 | 31 ft | 0 kts | 300° |
| 2026-04-21 12:56 | 10.77628 | 123.01562 | 31 ft | 2 kts | 300° |
| 2026-04-21 12:57 | 10.77620 | 123.01576 | 31 ft | 2 kts | 300° |
| 2026-04-21 12:57 | 10.77614 | 123.01588 | 31 ft | 2 kts | 300° |
| 2026-04-21 12:57 | 10.77610 | 123.01595 | 31 ft | 0 kts | 300° |
| 2026-04-21 12:57 | 10.77605 | 123.01606 | 31 ft | 2 kts | 269° |
| 2026-04-21 12:58 | 10.77613 | 123.01624 | 31 ft | 1 kts | 219° |
| 2026-04-21 12:58 | 10.77620 | 123.01628 | 31 ft | 1 kts | 207° |
| 2026-04-21 12:58 | 10.77622 | 123.01629 | 31 ft | 0 kts | 209° |
| 2026-04-21 13:01 | 10.77621 | 123.01629 | 31 ft | 0 kts | 209° |
| 2026-04-21 13:01 | 10.77609 | 123.01622 | 31 ft | 3 kts | 209° |
| 2026-04-21 13:01 | 10.77584 | 123.01607 | 31 ft | 4 kts | 210° |
| 2026-04-21 13:01 | 10.77554 | 123.01589 | 31 ft | 5 kts | 210° |
| 2026-04-21 13:02 | 10.77519 | 123.01569 | 31 ft | 6 kts | 210° |
| 2026-04-21 13:02 | 10.77515 | 123.01566 | 31 ft | 6 kts | 210° |
| 2026-04-21 13:02 | 10.77435 | 123.01520 | 31 ft | 8 kts | 209° |
| 2026-04-21 13:03 | 10.77380 | 123.01511 | 31 ft | 8 kts | 163° |
| 2026-04-21 13:03 | 10.77339 | 123.01559 | 31 ft | 9 kts | 121° |
| 2026-04-21 13:03 | 10.77304 | 123.01620 | 31 ft | 10 kts | 121° |
| 2026-04-21 13:03 | 10.77248 | 123.01661 | 31 ft | 10 kts | 178° |
| 2026-04-21 13:04 | 10.77178 | 123.01630 | 31 ft | 11 kts | 210° |
| 2026-04-21 13:04 | 10.77107 | 123.01588 | 31 ft | 12 kts | 210° |
| 2026-04-21 13:04 | 10.77033 | 123.01545 | 31 ft | 12 kts | 209° |
| 2026-04-21 13:04 | 10.76969 | 123.01508 | 31 ft | 6 kts | 216° |
| 2026-04-21 13:05 | 10.76942 | 123.01466 | 31 ft | 7 kts | 244° |
| 2026-04-21 13:05 | 10.76907 | 123.01441 | 31 ft | 5 kts | 172° |
| 2026-04-21 13:05 | 10.76891 | 123.01463 | 31 ft | 4 kts | 73° |
| 2026-04-21 13:05 | 10.76909 | 123.01477 | 31 ft | 3 kts | 20° |
| 2026-04-21 13:06 | 10.76966 | 123.01506 | 31 ft | 32 kts | 29° |
| 2026-04-21 13:06 | 10.77372 | 123.01746 | 31 ft | 101 kts | 28° |
| 2026-04-21 13:06 | 10.78156 | 123.02206 | 49 ft | 153 kts | 31° |
| 2026-04-21 13:06 | 10.79108 | 123.02708 | 537 ft | 157 kts | 28° |
| 2026-04-21 13:07 | 10.80063 | 123.03258 | 1155 ft | 158 kts | 32° |
| 2026-04-21 13:07 | 10.80980 | 123.03822 | 1766 ft | 157 kts | 32° |
| 2026-04-21 13:07 | 10.81952 | 123.04415 | 2122 ft | 172 kts | 31° |
| 2026-04-21 13:07 | 10.83037 | 123.05064 | 2480 ft | 189 kts | 30° |
| 2026-04-21 13:08 | 10.84231 | 123.05769 | 2844 ft | 206 kts | 30° |
| 2026-04-21 13:08 | 10.85577 | 123.06439 | 3129 ft | 230 kts | 13° |
| 2026-04-21 13:08 | 10.87222 | 123.06407 | 3530 ft | 250 kts | 342° |
| 2026-04-21 13:08 | 10.88702 | 123.05391 | 4029 ft | 268 kts | 309° |
| 2026-04-21 13:09 | 10.89613 | 123.03670 | 4488 ft | 288 kts | 295° |
| 2026-04-21 13:09 | 10.90444 | 123.01714 | 4941 ft | 306 kts | 295° |
| 2026-04-21 13:09 | 10.91299 | 122.99692 | 5350 ft | 324 kts | 295° |
| 2026-04-21 13:09 | 10.92224 | 122.97517 | 5737 ft | 342 kts | 294° |
| 2026-04-21 13:10 | 10.93234 | 122.95274 | 6154 ft | 359 kts | 294° |
| 2026-04-21 13:10 | 10.94323 | 122.92974 | 6915 ft | 364 kts | 295° |
| 2026-04-21 13:10 | 10.95468 | 122.90685 | 7772 ft | 366 kts | 300° |
| 2026-04-21 13:10 | 10.97121 | 122.88747 | 8545 ft | 372 kts | 319° |
| 2026-04-21 13:11 | 10.99098 | 122.87255 | 9337 ft | 374 kts | 324° |
| 2026-04-21 13:11 | 11.01285 | 122.85769 | 10091 ft | 377 kts | 325° |
| 2026-04-21 13:11 | 11.03499 | 122.84265 | 10838 ft | 379 kts | 324° |
| 2026-04-21 13:11 | 11.05663 | 122.82767 | 11566 ft | 382 kts | 324° |
| 2026-04-21 13:12 | 11.07869 | 122.81214 | 12296 ft | 384 kts | 324° |
| 2026-04-21 13:12 | 11.09889 | 122.79779 | 12927 ft | 386 kts | 323° |
| 2026-04-21 13:12 | 11.11170 | 122.78865 | 13303 ft | 389 kts | 323° |
| 2026-04-21 13:12 | 11.14101 | 122.76765 | 14136 ft | 394 kts | 323° |
| 2026-04-21 13:13 | 11.16129 | 122.75309 | 14699 ft | 397 kts | 323° |
| 2026-04-21 13:13 | 11.18486 | 122.73615 | 15335 ft | 401 kts | 323° |
| 2026-04-21 13:13 | 11.20789 | 122.71959 | 15939 ft | 404 kts | 323° |
| 2026-04-21 13:13 | 11.23035 | 122.70344 | 16507 ft | 408 kts | 323° |
| 2026-04-21 13:14 | 11.25336 | 122.68687 | 17069 ft | 411 kts | 323° |
| 2026-04-21 13:14 | 11.27721 | 122.66972 | 17629 ft | 415 kts | 323° |
| 2026-04-21 13:14 | 11.30084 | 122.65273 | 18168 ft | 418 kts | 323° |
| 2026-04-21 13:14 | 11.32486 | 122.63570 | 18688 ft | 421 kts | 324° |
| 2026-04-21 13:15 | 11.34903 | 122.61872 | 19191 ft | 425 kts | 324° |
| 2026-04-21 13:15 | 11.37337 | 122.60166 | 19678 ft | 428 kts | 324° |
| 2026-04-21 13:15 | 11.39795 | 122.58443 | 19914 ft | 438 kts | 324° |
| 2026-04-21 13:15 | 11.42325 | 122.56667 | 20095 ft | 448 kts | 324° |
| 2026-04-21 13:16 | 11.44918 | 122.54846 | 20290 ft | 456 kts | 324° |
| 2026-04-21 13:16 | 11.47569 | 122.52983 | 20639 ft | 461 kts | 324° |
| 2026-04-21 13:16 | 11.50233 | 122.51111 | 21062 ft | 463 kts | 324° |
| 2026-04-21 13:16 | 11.52768 | 122.49327 | 21446 ft | 465 kts | 324° |
| 2026-04-21 13:17 | 11.55440 | 122.47445 | 21834 ft | 468 kts | 324° |
| 2026-04-21 13:17 | 11.58130 | 122.45549 | 22211 ft | 471 kts | 324° |
| 2026-04-21 13:17 | 11.60836 | 122.43643 | 22571 ft | 473 kts | 324° |
| 2026-04-21 13:17 | 11.63552 | 122.41730 | 22915 ft | 475 kts | 324° |
| 2026-04-21 13:18 | 11.66285 | 122.40001 | 23226 ft | 479 kts | 330° |
| 2026-04-21 13:18 | 11.69151 | 122.38605 | 23527 ft | 481 kts | 337° |
| 2026-04-21 13:18 | 11.72434 | 122.37466 | 23837 ft | 485 kts | 344° |
| 2026-04-21 13:18 | 11.75755 | 122.36669 | 24134 ft | 487 kts | 347° |
| 2026-04-21 13:19 | 11.79041 | 122.35967 | 24402 ft | 489 kts | 347° |
| 2026-04-21 13:19 | 11.82375 | 122.35270 | 24654 ft | 491 kts | 348° |
| 2026-04-21 13:19 | 11.85747 | 122.34561 | 24902 ft | 492 kts | 347° |
| 2026-04-21 13:19 | 11.89076 | 122.33853 | 25138 ft | 494 kts | 347° |
| 2026-04-21 13:20 | 11.92441 | 122.33131 | 25363 ft | 495 kts | 347° |
| 2026-04-21 13:20 | 11.95824 | 122.32401 | 25573 ft | 497 kts | 347° |
| 2026-04-21 13:20 | 11.99200 | 122.31670 | 25768 ft | 498 kts | 347° |
| 2026-04-21 13:20 | 12.02573 | 122.30937 | 25947 ft | 499 kts | 347° |
| 2026-04-21 13:21 | 12.05848 | 122.30225 | 26124 ft | 500 kts | 347° |
| 2026-04-21 13:21 | 12.09197 | 122.29497 | 26336 ft | 500 kts | 347° |
| 2026-04-21 13:21 | 12.12589 | 122.28759 | 26566 ft | 500 kts | 347° |
| 2026-04-21 13:21 | 12.16182 | 122.27976 | 26813 ft | 499 kts | 347° |
| 2026-04-21 13:22 | 12.19610 | 122.27229 | 27049 ft | 499 kts | 347° |
| 2026-04-21 13:22 | 12.22951 | 122.26501 | 27349 ft | 496 kts | 347° |
| 2026-04-21 13:22 | 12.26320 | 122.25767 | 27999 ft | 487 kts | 347° |
| 2026-04-21 13:22 | 12.29589 | 122.25050 | 28785 ft | 475 kts | 346° |
| 2026-04-21 13:23 | 12.32683 | 122.24206 | 29739 ft | 459 kts | 342° |
| 2026-04-21 13:23 | 12.35607 | 122.23163 | 30682 ft | 434 kts | 338° |
| 2026-04-21 13:23 | 12.38278 | 122.21976 | 31363 ft | 420 kts | 333° |
| 2026-04-21 13:23 | 12.40880 | 122.20573 | 31780 ft | 418 kts | 329° |
| 2026-04-21 13:24 | 12.43303 | 122.19030 | 31892 ft | 419 kts | 325° |
| 2026-04-21 13:24 | 12.45769 | 122.17323 | 31894 ft | 419 kts | 324° |
| 2026-04-21 13:24 | 12.50548 | 122.13972 | 31896 ft | 419 kts | 325° |
| 2026-04-21 13:25 | 12.55371 | 122.10605 | 31897 ft | 419 kts | 325° |
| 2026-04-21 13:25 | 12.60204 | 122.07240 | 31897 ft | 419 kts | 325° |
| 2026-04-21 13:26 | 12.64988 | 122.03910 | 31897 ft | 419 kts | 325° |
| 2026-04-21 13:26 | 12.69780 | 122.00575 | 31897 ft | 419 kts | 325° |
| 2026-04-21 13:27 | 12.74597 | 121.97221 | 31897 ft | 419 kts | 325° |
| 2026-04-21 13:27 | 12.79423 | 121.93860 | 31897 ft | 419 kts | 325° |
| 2026-04-21 13:28 | 12.84279 | 121.90477 | 31897 ft | 419 kts | 325° |
| 2026-04-21 13:28 | 12.89085 | 121.87125 | 31897 ft | 419 kts | 325° |
| 2026-04-21 13:29 | 12.93920 | 121.83753 | 31897 ft | 419 kts | 325° |
| 2026-04-21 13:29 | 12.98748 | 121.80385 | 31896 ft | 420 kts | 325° |
| 2026-04-21 13:30 | 13.03579 | 121.77011 | 31896 ft | 421 kts | 325° |
| 2026-04-21 13:30 | 13.08447 | 121.73610 | 31896 ft | 421 kts | 325° |
| 2026-04-21 13:31 | 13.13325 | 121.70199 | 31577 ft | 426 kts | 325° |
| 2026-04-21 13:31 | 13.15787 | 121.68480 | 30863 ft | 429 kts | 325° |
| 2026-04-21 13:31 | 13.18279 | 121.66740 | 30196 ft | 431 kts | 325° |
| 2026-04-21 13:32 | 13.20770 | 121.64999 | 29555 ft | 431 kts | 325° |
| 2026-04-21 13:32 | 13.23245 | 121.63268 | 28914 ft | 431 kts | 325° |
| 2026-04-21 13:32 | 13.25724 | 121.61535 | 28268 ft | 432 kts | 325° |
| 2026-04-21 13:32 | 13.28210 | 121.59795 | 27618 ft | 432 kts | 324° |
| 2026-04-21 13:33 | 13.30674 | 121.58070 | 27130 ft | 428 kts | 324° |
| 2026-04-21 13:33 | 13.33112 | 121.56363 | 26691 ft | 423 kts | 324° |
| 2026-04-21 13:33 | 13.35567 | 121.54644 | 26240 ft | 418 kts | 324° |
| 2026-04-21 13:33 | 13.37923 | 121.52992 | 25807 ft | 413 kts | 324° |
| 2026-04-21 13:34 | 13.40312 | 121.51318 | 25365 ft | 409 kts | 324° |
| 2026-04-21 13:34 | 13.42652 | 121.49677 | 24929 ft | 405 kts | 324° |
| 2026-04-21 13:34 | 13.44959 | 121.48058 | 24500 ft | 401 kts | 324° |
| 2026-04-21 13:34 | 13.47240 | 121.46458 | 24074 ft | 398 kts | 324° |
| 2026-04-21 13:35 | 13.49515 | 121.44862 | 23647 ft | 394 kts | 324° |
| 2026-04-21 13:35 | 13.51794 | 121.43262 | 23218 ft | 390 kts | 324° |
| 2026-04-21 13:35 | 13.54026 | 121.41695 | 22794 ft | 387 kts | 324° |
| 2026-04-21 13:35 | 13.56239 | 121.40141 | 22375 ft | 384 kts | 324° |
| 2026-04-21 13:36 | 13.58441 | 121.38600 | 21958 ft | 381 kts | 324° |
| 2026-04-21 13:36 | 13.60628 | 121.37079 | 21543 ft | 378 kts | 324° |
| 2026-04-21 13:36 | 13.62796 | 121.35574 | 21129 ft | 375 kts | 324° |
| 2026-04-21 13:36 | 13.64933 | 121.34088 | 20721 ft | 372 kts | 323° |
| 2026-04-21 13:37 | 13.67066 | 121.32615 | 20312 ft | 369 kts | 325° |
| 2026-04-21 13:37 | 13.69250 | 121.31251 | 19896 ft | 366 kts | 327° |
| 2026-04-21 13:37 | 13.71457 | 121.29932 | 19439 ft | 363 kts | 328° |
| 2026-04-21 13:37 | 13.73614 | 121.28656 | 18989 ft | 360 kts | 328° |
| 2026-04-21 13:38 | 13.75787 | 121.27374 | 18537 ft | 356 kts | 328° |
| 2026-04-21 13:38 | 13.77929 | 121.26110 | 18091 ft | 353 kts | 328° |
| 2026-04-21 13:38 | 13.80056 | 121.24855 | 17645 ft | 350 kts | 328° |
| 2026-04-21 13:38 | 13.82155 | 121.23618 | 17203 ft | 347 kts | 328° |
| 2026-04-21 13:39 | 13.84240 | 121.22389 | 16761 ft | 344 kts | 328° |
| 2026-04-21 13:39 | 13.86293 | 121.21177 | 16323 ft | 341 kts | 328° |
| 2026-04-21 13:39 | 13.88384 | 121.19943 | 15875 ft | 338 kts | 328° |
| 2026-04-21 13:39 | 13.90405 | 121.18746 | 15438 ft | 335 kts | 328° |
| 2026-04-21 13:40 | 13.91995 | 121.17804 | 15089 ft | 333 kts | 328° |
| 2026-04-21 13:40 | 13.93984 | 121.16623 | 14645 ft | 330 kts | 328° |
| 2026-04-21 13:40 | 13.96648 | 121.15035 | 14053 ft | 327 kts | 328° |
| 2026-04-21 13:40 | 13.97957 | 121.14253 | 13758 ft | 325 kts | 328° |
| 2026-04-21 13:41 | 13.99897 | 121.13088 | 13320 ft | 322 kts | 328° |
| 2026-04-21 13:41 | 14.01782 | 121.11953 | 12891 ft | 320 kts | 328° |
| 2026-04-21 13:41 | 14.03744 | 121.10765 | 12440 ft | 317 kts | 328° |
| 2026-04-21 13:41 | 14.05595 | 121.09637 | 12016 ft | 315 kts | 328° |
| 2026-04-21 13:42 | 14.07478 | 121.08487 | 11570 ft | 313 kts | 328° |
| 2026-04-21 13:42 | 14.09382 | 121.07330 | 11084 ft | 312 kts | 328° |
| 2026-04-21 13:42 | 14.11282 | 121.06185 | 10592 ft | 312 kts | 328° |
| 2026-04-21 13:42 | 14.13216 | 121.05025 | 10101 ft | 311 kts | 328° |
| 2026-04-21 13:43 | 14.15127 | 121.03883 | 9609 ft | 311 kts | 328° |
| 2026-04-21 13:43 | 14.17032 | 121.02746 | 9338 ft | 302 kts | 328° |
| 2026-04-21 13:43 | 14.18713 | 121.01429 | 9114 ft | 289 kts | 308° |
| 2026-04-21 13:43 | 14.19737 | 120.99603 | 8841 ft | 279 kts | 291° |
| 2026-04-21 13:44 | 14.20348 | 120.97982 | 8491 ft | 278 kts | 288° |
| 2026-04-21 13:44 | 14.20995 | 120.96103 | 8065 ft | 278 kts | 288° |
| 2026-04-21 13:44 | 14.21627 | 120.94240 | 7650 ft | 278 kts | 288° |
| 2026-04-21 13:44 | 14.22265 | 120.92361 | 7255 ft | 277 kts | 287° |
| 2026-04-21 13:45 | 14.22904 | 120.90489 | 6841 ft | 277 kts | 287° |
| 2026-04-21 13:45 | 14.23551 | 120.88609 | 6399 ft | 278 kts | 288° |
| 2026-04-21 13:45 | 14.24196 | 120.86740 | 5989 ft | 277 kts | 288° |
| 2026-04-21 13:45 | 14.24849 | 120.84844 | 5616 ft | 275 kts | 288° |
| 2026-04-21 13:46 | 14.25505 | 120.82995 | 5251 ft | 274 kts | 293° |
| 2026-04-21 13:46 | 14.26600 | 120.81441 | 4808 ft | 278 kts | 318° |
| 2026-04-21 13:46 | 14.28185 | 120.80258 | 4430 ft | 277 kts | 326° |
| 2026-04-21 13:46 | 14.29810 | 120.79208 | 4027 ft | 277 kts | 328° |
| 2026-04-21 13:47 | 14.31441 | 120.78171 | 3636 ft | 277 kts | 328° |
| 2026-04-21 13:47 | 14.33183 | 120.77348 | 3237 ft | 276 kts | 348° |
| 2026-04-21 13:47 | 14.35083 | 120.77390 | 2842 ft | 273 kts | 17° |
| 2026-04-21 13:47 | 14.36818 | 120.78107 | 2643 ft | 262 kts | 32° |
| 2026-04-21 13:48 | 14.38180 | 120.79296 | 2505 ft | 249 kts | 53° |
| 2026-04-21 13:48 | 14.39124 | 120.80710 | 2495 ft | 233 kts | 61° |
| 2026-04-21 13:48 | 14.39910 | 120.82132 | 2483 ft | 217 kts | 63° |
| 2026-04-21 13:48 | 14.40619 | 120.83460 | 2483 ft | 208 kts | 63° |
| 2026-04-21 13:49 | 14.41327 | 120.84772 | 2491 ft | 207 kts | 63° |
| 2026-04-21 13:49 | 14.42018 | 120.86034 | 2493 ft | 210 kts | 62° |
| 2026-04-21 13:49 | 14.42744 | 120.87344 | 2498 ft | 209 kts | 62° |
| 2026-04-21 13:49 | 14.43432 | 120.88581 | 2511 ft | 205 kts | 62° |
| 2026-04-21 13:50 | 14.44124 | 120.89822 | 2411 ft | 193 kts | 62° |
| 2026-04-21 13:50 | 14.44768 | 120.90981 | 2118 ft | 182 kts | 62° |
| 2026-04-21 13:50 | 14.45385 | 120.92091 | 1857 ft | 171 kts | 62° |
| 2026-04-21 13:50 | 14.45950 | 120.93108 | 1623 ft | 157 kts | 62° |
| 2026-04-21 13:51 | 14.46464 | 120.94028 | 1385 ft | 145 kts | 62° |
| 2026-04-21 13:51 | 14.46960 | 120.94920 | 1203 ft | 141 kts | 62° |
| 2026-04-21 13:51 | 14.47449 | 120.95804 | 1033 ft | 140 kts | 62° |
| 2026-04-21 13:51 | 14.47931 | 120.96672 | 848 ft | 141 kts | 62° |
| 2026-04-21 13:52 | 14.48423 | 120.97558 | 668 ft | 140 kts | 62° |
| 2026-04-21 13:52 | 14.48914 | 120.98441 | 481 ft | 139 kts | 62° |
| 2026-04-21 13:52 | 14.49392 | 120.99302 | 290 ft | 139 kts | 62° |
| 2026-04-21 13:52 | 14.49875 | 121.00162 | 108 ft | 137 kts | 62° |
| 2026-04-21 13:53 | 14.50289 | 121.00917 | 84 ft | 99 kts | 62° |
| 2026-04-21 13:53 | 14.50546 | 121.01388 | 84 ft | 49 kts | 60° |
| 2026-04-21 13:53 | 14.50649 | 121.01572 | 84 ft | 19 kts | 59° |
| 2026-04-21 13:53 | 14.50729 | 121.01681 | 84 ft | 18 kts | 47° |
| 2026-04-21 13:54 | 14.50817 | 121.01759 | 84 ft | 12 kts | 37° |
| 2026-04-21 13:54 | 14.50869 | 121.01791 | 84 ft | 7 kts | 6° |
| 2026-04-21 13:54 | 14.50915 | 121.01761 | 84 ft | 8 kts | 315° |
| 2026-04-21 13:54 | 14.50961 | 121.01714 | 84 ft | 9 kts | 315° |
| 2026-04-21 13:55 | 14.51010 | 121.01662 | 84 ft | 10 kts | 315° |
| 2026-04-21 13:55 | 14.51053 | 121.01620 | 84 ft | 11 kts | 315° |
| 2026-04-21 13:55 | 14.51108 | 121.01563 | 84 ft | 10 kts | 315° |
| 2026-04-21 13:55 | 14.51160 | 121.01510 | 84 ft | 9 kts | 315° |
| 2026-04-21 13:56 | 14.51208 | 121.01460 | 84 ft | 8 kts | 315° |
| 2026-04-21 13:56 | 14.51257 | 121.01424 | 84 ft | 9 kts | 354° |
| 2026-04-21 13:56 | 14.51310 | 121.01462 | 84 ft | 10 kts | 54° |
| 2026-04-21 13:56 | 14.51354 | 121.01522 | 84 ft | 10 kts | 45° |
| 2026-04-21 13:57 | 14.51410 | 121.01575 | 84 ft | 11 kts | 43° |
| 2026-04-21 13:57 | 14.51477 | 121.01626 | 84 ft | 12 kts | 43° |
| 2026-04-21 13:57 | 14.51538 | 121.01688 | 84 ft | 12 kts | 45° |
| 2026-04-21 13:57 | 14.51586 | 121.01738 | 84 ft | 6 kts | 44° |
| 2026-04-21 13:58 | 14.51616 | 121.01769 | 84 ft | 5 kts | 44° |
| 2026-04-21 13:58 | 14.51649 | 121.01786 | 84 ft | 5 kts | 10° |
| 2026-04-21 13:58 | 14.51687 | 121.01775 | 84 ft | 5 kts | 314° |
| 2026-04-21 13:58 | 14.51684 | 121.01746 | 84 ft | 3 kts | 229° |
| 2026-04-21 13:59 | 14.51666 | 121.01728 | 84 ft | 3 kts | 224° |
| 2026-04-21 13:59 | 14.51657 | 121.01719 | 84 ft | 0 kts | 224° |
| 2026-04-21 13:59 | 14.51655 | 121.01717 | 84 ft | 0 kts | 224° |
| 2026-04-21 13:59 | 14.51653 | 121.01715 | 84 ft | 0 kts | 224° |
| 2026-04-21 14:00 | 14.51652 | 121.01715 | 84 ft | 0 kts | 224° |